This is the latest recevied weather packets stored in our database for station/object IU1OPQ-3. If no packets are shown the sender has not sent any weather packets the latest 10 day(s).
| Time | Temp. | Humidity | Pressure | Rain* | Wind** | Luminosity | Snow |
|---|---|---|---|---|---|---|---|
| 1777860901 | 12.78° C | 61% | 1016.6 hPa | 0 mm | - | - | - |
| 1777860001 | 12.22° C | 61% | 1016.4 hPa | 0 mm | - | - | - |
| 1777859101 | 12.78° C | 57% | 1016.6 hPa | 0 mm | - | - | - |
| 1777858201 | 13.33° C | 55% | 1016.5 hPa | 0 mm | - | - | - |
| 1777857301 | 12.22° C | 59% | 1016.7 hPa | 0 mm | - | - | - |
| 1777856400 | 12.22° C | 57% | 1016.6 hPa | 0 mm | - | - | - |
| 1777855501 | 12.78° C | 53% | 1016.9 hPa | 0 mm | - | - | - |
| 1777854601 | 12.78° C | 51% | 1016.9 hPa | 0 mm | - | - | - |
| 1777853701 | 12.78° C | 49% | 1016.9 hPa | 0 mm | - | - | - |
| 1777852800 | 13.33° C | 48% | 1017.1 hPa | 0 mm | - | - | - |
| 1777851900 | 13.33° C | 48% | 1017.2 hPa | 0 mm | - | - | - |
| 1777851001 | 13.33° C | 48% | 1017.2 hPa | 0 mm | - | - | - |
| 1777850101 | 12.78° C | 47% | 1017.4 hPa | 0 mm | - | - | - |
| 1777849201 | 12.78° C | 47% | 1017.3 hPa | 0 mm | - | - | - |
| 1777848300 | 13.33° C | 47% | 1017.6 hPa | 0 mm | - | - | - |
| 1777847401 | 12.78° C | 46% | 1017.4 hPa | 0 mm | - | - | - |
| 1777846501 | 13.33° C | 46% | 1017.4 hPa | 0 mm | - | - | - |
| 1777845600 | 13.33° C | 45% | 1017.5 hPa | 0 mm | - | - | - |
| 1777844701 | 13.33° C | 44% | 1017.4 hPa | 0 mm | - | - | - |
| 1777843800 | 13.33° C | 44% | 1017.4 hPa | 0 mm | - | - | - |
| 1777842900 | 13.33° C | 46% | 1017.3 hPa | 0 mm | - | - | - |
| 1777842001 | 13.33° C | 45% | 1017.4 hPa | 0 mm | - | - | - |
| 1777841101 | 13.33° C | 45% | 1017.4 hPa | 0 mm | - | - | - |
| 1777840200 | 13.33° C | 47% | 1017.2 hPa | 0 mm | - | - | - |
| 1777839301 | 13.33° C | 47% | 1017.1 hPa | 0 mm | - | - | - |
* Rain latest hour (hover to see other rain measurements)
** Current wind speed in m/s (hover to see current wind gust speed)